Time;durP1;ratioP1;P1;durP2;ratioP2;P2;SDS_P1;SDS_P2;PMS_P1;PMS_P2;Temp;Humidity;BMP_temperature;BMP_pressure;BME280_temperature;BME280_humidity;BME280_pressure;Samples;Min_cycle;Max_cycle;Signal;HPM_P1;HPM_P2
2021/07/04 00:00:18;;;;;;;12.20;10.90;;;22.10;99.90;;;;;;5075290;28;20021;-81
2021/07/04 00:02:44;;;;;;;11.13;10.00;;;22.10;99.90;;;;;;5075204;28;20050;-81
2021/07/04 00:05:13;;;;;;;11.93;10.68;;;22.10;99.90;;;;;;5075219;28;20482;-81
2021/07/04 00:07:41;;;;;;;10.68;9.68;;;22.10;99.90;;;;;;5074997;28;20035;-81
2021/07/04 00:10:11;;;;;;;10.90;9.80;;;22.10;99.90;;;;;;5075012;28;20016;-81
2021/07/04 00:12:37;;;;;;;10.48;9.52;;;22.10;99.90;;;;;;5073838;28;20036;-81
2021/07/04 00:15:07;;;;;;;10.52;9.52;;;22.10;99.90;;;;;;5073610;28;20035;-81
2021/07/04 00:17:33;;;;;;;9.98;8.98;;;22.10;99.90;;;;;;5072791;28;20024;-81
2021/07/04 00:19:59;;;;;;;11.68;9.98;;;22.10;99.90;;;;;;5054883;28;20428;-81
2021/07/04 00:22:25;;;;;;;11.30;10.10;;;22.00;99.90;;;;;;5053522;28;20487;-81
2021/07/04 00:24:50;;;;;;;9.63;8.45;;;22.00;99.90;;;;;;5054654;28;20036;-81
2021/07/04 00:27:16;;;;;;;10.73;9.65;;;22.00;99.90;;;;;;5053978;28;20049;-81
2021/07/04 00:29:42;;;;;;;10.50;9.45;;;22.00;99.90;;;;;;5055794;28;20025;-80
2021/07/04 00:32:07;;;;;;;11.18;9.55;;;22.00;99.90;;;;;;5069986;28;20032;-81
2021/07/04 00:34:33;;;;;;;10.25;9.15;;;22.00;99.90;;;;;;5053258;28;20074;-81
2021/07/04 00:36:58;;;;;;;15.13;9.35;;;21.90;99.90;;;;;;5054397;28;20476;-81
2021/07/04 00:39:24;;;;;;;9.73;8.80;;;21.90;99.90;;;;;;5054511;28;20078;-81
2021/07/04 00:41:50;;;;;;;11.50;9.27;;;21.90;99.90;;;;;;5054417;28;20104;-81
2021/07/04 00:44:15;;;;;;;10.45;9.45;;;21.90;99.90;;;;;;5054321;28;20029;-81
2021/07/04 00:46:41;;;;;;;13.20;9.13;;;21.90;99.90;;;;;;5054237;28;20032;-81
2021/07/04 00:49:07;;;;;;;11.25;10.05;;;21.90;99.90;;;;;;5053040;28;20029;-81
2021/07/04 00:51:32;;;;;;;9.90;8.73;;;21.90;99.90;;;;;;5072445;28;20047;-81
2021/07/04 00:53:58;;;;;;;9.75;8.75;;;21.90;99.90;;;;;;5074081;28;20090;-81
2021/07/04 00:56:24;;;;;;;10.18;9.23;;;21.90;99.90;;;;;;5074297;28;20031;-81
2021/07/04 00:58:50;;;;;;;11.63;9.65;;;21.90;99.90;;;;;;5074065;28;20472;-81
2021/07/04 01:01:16;;;;;;;9.70;8.70;;;21.80;99.90;;;;;;5074010;28;20028;-81
2021/07/04 01:03:41;;;;;;;10.38;8.98;;;21.80;99.90;;;;;;5073920;28;20025;-81
2021/07/04 01:06:07;;;;;;;9.77;8.77;;;21.80;99.90;;;;;;5074513;28;20448;-81
2021/07/04 01:08:33;;;;;;;9.32;8.38;;;21.80;99.90;;;;;;5073762;28;20032;-81
2021/07/04 01:11:02;;;;;;;9.20;8.32;;;21.80;99.90;;;;;;5072091;28;20033;-81
2021/07/04 01:13:28;;;;;;;8.70;7.68;;;21.80;99.90;;;;;;5073954;28;20483;-80
2021/07/04 01:15:54;;;;;;;8.50;7.70;;;21.80;99.90;;;;;;5073697;28;20027;-81
2021/07/04 01:18:20;;;;;;;8.80;8.00;;;21.80;99.90;;;;;;5072249;28;20476;-81
2021/07/04 01:20:46;;;;;;;11.18;8.00;;;21.80;99.90;;;;;;5073576;28;20111;-81
2021/07/04 01:23:15;;;;;;;10.15;8.45;;;21.70;99.90;;;;;;5072381;28;20111;-81
2021/07/04 01:25:47;;;;;;;8.77;7.85;;;21.80;99.90;;;;;;5072300;28;20085;-81
2021/07/04 01:28:13;;;;;;;10.00;7.82;;;21.80;99.90;;;;;;5073227;28;20048;-81
2021/07/04 01:30:43;;;;;;;9.70;7.85;;;21.80;99.90;;;;;;5072633;28;20024;-81
2021/07/04 01:33:09;;;;;;;9.20;8.30;;;21.80;99.90;;;;;;5071980;28;20467;-81
2021/07/04 01:35:35;;;;;;;9.07;7.90;;;21.80;99.90;;;;;;5073241;28;20513;-81
2021/07/04 01:38:00;;;;;;;9.02;8.15;;;21.70;99.90;;;;;;5071314;28;20135;-81
2021/07/04 01:40:26;;;;;;;8.73;7.93;;;21.70;99.90;;;;;;5073248;28;20797;-81
2021/07/04 01:42:53;;;;;;;9.80;7.97;;;21.70;99.90;;;;;;5073212;28;20108;-81
2021/07/04 01:45:21;;;;;;;9.10;8.10;;;21.70;99.90;;;;;;5071922;28;20021;-81
2021/07/04 01:47:49;;;;;;;10.82;8.73;;;21.70;99.90;;;;;;5073271;28;20016;-80
2021/07/04 01:50:22;;;;;;;8.20;7.20;;;21.70;99.90;;;;;;5070166;28;20025;-81
2021/07/04 01:52:48;;;;;;;9.27;8.35;;;21.60;99.90;;;;;;5073179;28;20023;-81
2021/07/04 01:55:16;;;;;;;8.93;8.13;;;21.60;99.90;;;;;;5073119;28;20020;-81
2021/07/04 01:57:42;;;;;;;8.75;7.85;;;21.60;99.90;;;;;;5073030;28;20482;-81
2021/07/04 02:00:20;;;;;;;9.32;8.10;;;21.60;99.90;;;;;;5073100;28;20024;-81
2021/07/04 02:02:48;;;;;;;10.05;8.98;;;21.60;99.90;;;;;;5072971;28;20020;-81
2021/07/04 02:05:14;;;;;;;8.88;7.93;;;21.60;99.90;;;;;;5073016;28;20031;-81
2021/07/04 02:07:40;;;;;;;11.02;9.63;;;21.50;99.90;;;;;;5072868;28;20028;-81
2021/07/04 02:10:08;;;;;;;9.40;8.10;;;21.50;99.90;;;;;;5065697;28;20107;-81
2021/07/04 02:12:35;;;;;;;8.63;7.25;;;21.50;99.90;;;;;;5053256;28;20051;-81
2021/07/04 02:15:07;;;;;;;8.65;7.45;;;21.50;99.90;;;;;;5052922;28;20060;-81
2021/07/04 02:17:34;;;;;;;9.63;8.52;;;21.50;99.90;;;;;;5051553;28;20029;-81
2021/07/04 02:20:12;;;;;;;9.70;7.65;;;21.50;99.90;;;;;;5068351;28;20024;-81
2021/07/04 02:22:37;;;;;;;8.27;7.57;;;21.60;99.90;;;;;;5052627;28;20036;-81
2021/07/04 02:25:03;;;;;;;8.70;7.80;;;21.50;99.90;;;;;;5052635;28;20021;-81
2021/07/04 02:27:29;;;;;;;9.07;8.10;;;21.50;99.90;;;;;;5052319;28;20045;-81
2021/07/04 02:29:55;;;;;;;8.50;7.70;;;21.50;99.90;;;;;;5052669;28;20025;-81
2021/07/04 02:32:20;;;;;;;8.43;7.55;;;21.50;99.90;;;;;;5051391;28;20375;-81
2021/07/04 02:34:46;;;;;;;9.15;8.35;;;21.50;99.90;;;;;;5053640;28;20436;-81
2021/07/04 02:37:12;;;;;;;10.05;8.90;;;21.60;99.90;;;;;;5053276;28;20033;-81
2021/07/04 02:39:37;;;;;;;9.18;8.20;;;21.60;99.90;;;;;;5051889;28;20033;-81
2021/07/04 02:42:03;;;;;;;11.68;10.02;;;21.60;99.90;;;;;;5067953;28;20029;-81
2021/07/04 02:44:29;;;;;;;9.77;8.77;;;21.50;99.90;;;;;;5051331;28;20059;-81
2021/07/04 02:46:54;;;;;;;9.07;8.10;;;21.60;99.90;;;;;;5052418;28;20451;-81
2021/07/04 02:49:20;;;;;;;10.85;9.63;;;21.60;99.90;;;;;;5053259;28;20538;-81
2021/07/04 02:51:46;;;;;;;11.20;10.05;;;21.50;99.90;;;;;;5055294;28;20021;-81
2021/07/04 02:54:12;;;;;;;12.35;9.25;;;21.50;99.90;;;;;;5056498;28;20020;-81
2021/07/04 02:56:37;;;;;;;11.30;9.95;;;21.60;99.90;;;;;;5056376;28;20021;-79
2021/07/04 02:59:03;;;;;;;10.38;9.38;;;21.60;99.90;;;;;;5056415;28;20489;-80
2021/07/04 03:01:29;;;;;;;9.52;8.63;;;21.70;99.90;;;;;;5056381;28;20443;-79
2021/07/04 03:03:54;;;;;;;11.98;10.75;;;21.70;99.90;;;;;;5056345;28;20021;-79
2021/07/04 03:06:20;;;;;;;12.80;11.35;;;21.70;99.90;;;;;;5056260;28;20021;-79
2021/07/04 03:08:46;;;;;;;14.57;11.93;;;21.60;99.90;;;;;;5054958;28;20402;-79
2021/07/04 03:11:12;;;;;;;12.55;11.25;;;21.60;99.90;;;;;;5072893;28;20095;-79
2021/07/04 03:13:38;;;;;;;11.75;10.65;;;21.60;99.90;;;;;;5076864;28;20025;-79
2021/07/04 03:16:03;;;;;;;12.27;10.82;;;21.60;99.90;;;;;;5074956;28;20028;-79
2021/07/04 03:18:29;;;;;;;13.77;12.05;;;21.60;99.90;;;;;;5076195;28;20025;-79
2021/07/04 03:20:55;;;;;;;12.15;10.77;;;21.70;99.90;;;;;;5075904;28;20387;-80
2021/07/04 03:23:20;;;;;;;12.60;11.02;;;21.80;99.90;;;;;;5074722;28;20032;-79
2021/07/04 03:25:46;;;;;;;13.48;10.25;;;21.80;99.90;;;;;;5075885;28;20047;-79
2021/07/04 03:28:12;;;;;;;12.38;11.13;;;21.90;99.90;;;;;;5075522;28;20457;-79
2021/07/04 03:30:37;;;;;;;13.60;10.75;;;21.90;99.90;;;;;;5072769;28;20020;-79
2021/07/04 03:33:03;;;;;;;11.93;10.73;;;22.00;99.90;;;;;;5076503;28;20016;-79
2021/07/04 03:35:29;;;;;;;11.90;10.70;;;22.10;99.90;;;;;;5076379;28;20036;-79
2021/07/04 03:37:55;;;;;;;13.07;11.38;;;22.20;99.90;;;;;;5076291;28;20025;-79
2021/07/04 03:40:20;;;;;;;14.52;13.00;;;22.20;99.90;;;;;;5076360;28;20548;-79
2021/07/04 03:42:47;;;;;;;12.98;11.63;;;22.20;99.90;;;;;;5076288;28;20035;-79
2021/07/04 03:45:13;;;;;;;16.65;14.85;;;22.30;99.90;;;;;;5068487;28;20039;-79
2021/07/04 03:47:40;;;;;;;17.95;13.57;;;22.30;99.90;;;;;;5055387;28;20494;-80
2021/07/04 03:50:07;;;;;;;15.80;14.30;;;22.40;99.90;;;;;;5055519;28;20028;-80
2021/07/04 03:52:32;;;;;;;14.90;13.50;;;22.50;99.90;;;;;;5055434;28;20078;-79
2021/07/04 03:54:58;;;;;;;13.32;12.13;;;22.60;99.90;;;;;;5054968;28;20069;-80
2021/07/04 03:57:24;;;;;;;16.80;14.98;;;22.70;99.90;;;;;;5055308;28;20429;-80
2021/07/04 03:59:55;;;;;;;17.23;15.52;;;22.70;99.90;;;;;;5054792;28;20025;-80
2021/07/04 04:02:21;;;;;;;18.15;15.93;;;22.70;99.90;;;;;;5053958;28;20171;-80
2021/07/04 04:04:47;;;;;;;18.38;16.48;;;22.60;99.90;;;;;;5058396;28;20513;-80
2021/07/04 04:07:13;;;;;;;17.15;15.48;;;22.60;99.90;;;;;;5075659;28;20028;-80
2021/07/04 04:09:39;;;;;;;20.50;17.05;;;22.70;99.90;;;;;;5074286;28;20227;-80
2021/07/04 18:43:59;;;;;;;7.57;6.78;;;27.30;94.30;;;;;;5111329;27;20772;-83
2021/07/04 18:46:25;;;;;;;15.00;10.60;;;27.00;93.80;;;;;;5111314;28;20497;-89
2021/07/04 18:48:50;;;;;;;9.20;8.30;;;27.00;94.30;;;;;;5110064;28;20027;-87
2021/07/04 18:51:18;;;;;;;9.50;7.32;;;26.90;94.20;;;;;;5110122;28;20024;-85
2021/07/04 18:53:44;;;;;;;7.93;7.07;;;27.00;94.60;;;;;;5110032;28;20048;-85
2021/07/04 18:56:10;;;;;;;10.45;7.07;;;27.00;94.60;;;;;;5111365;28;20085;-84
2021/07/04 18:58:35;;;;;;;7.53;6.72;;;27.00;94.50;;;;;;5109933;28;20028;-84
2021/07/04 19:01:01;;;;;;;7.68;6.70;;;27.00;94.60;;;;;;5111511;28;20027;-92
2021/07/04 19:03:27;;;;;;;7.25;6.28;;;27.00;94.40;;;;;;5110775;28;20478;-93
2021/07/04 19:05:54;;;;;;;10.55;7.50;;;27.10;94.40;;;;;;5111566;28;20023;-95
2021/07/04 19:08:21;;;;;;;8.48;7.60;;;27.10;94.40;;;;;;5106955;28;20048;-91
2021/07/04 19:10:48;;;;;;;7.20;6.60;;;27.10;94.60;;;;;;5090188;28;20017;-90
2021/07/04 19:13:15;;;;;;;8.30;7.50;;;27.10;94.50;;;;;;5090219;28;20110;-90
2021/07/04 19:15:43;;;;;;;7.45;6.20;;;27.10;94.50;;;;;;5090171;28;20024;-90
2021/07/04 19:18:14;;;;;;;7.60;6.45;;;27.10;94.40;;;;;;5090180;28;20040;-90
2021/07/04 19:20:46;;;;;;;7.57;6.78;;;27.20;94.40;;;;;;5089982;28;20036;-91
2021/07/04 19:23:14;;;;;;;8.02;6.55;;;27.10;94.50;;;;;;5089844;28;20490;-91
2021/07/04 19:25:46;;;;;;;9.13;8.20;;;27.10;94.50;;;;;;5090047;28;20032;-91
2021/07/04 19:28:16;;;;;;;7.88;7.00;;;27.10;94.40;;;;;;5090940;28;20088;-96
2021/07/04 19:30:43;;;;;;;8.30;7.07;;;27.10;94.50;;;;;;5090948;28;20048;-91
2021/07/04 19:33:09;;;;;;;7.85;6.40;;;27.10;94.50;;;;;;5093058;28;20382;-94
2021/07/04 19:35:35;;;;;;;94.00;68.03;;;27.10;94.20;;;;;;5089955;28;20089;-90
2021/07/04 19:38:01;;;;;;;29.88;26.77;;;27.20;94.10;;;;;;5103586;28;20055;-88
2021/07/04 19:40:34;;;;;;;21.65;14.77;;;27.10;94.30;;;;;;5110517;28;20512;-94
2021/07/04 19:43:06;;;;;;;28.63;21.95;;;27.10;94.40;;;;;;5110595;28;20100;-90
2021/07/04 19:45:33;;;;;;;14.65;13.05;;;27.00;94.50;;;;;;5109548;28;20427;-86
2021/07/04 19:48:06;;;;;;;15.75;11.48;;;27.00;94.40;;;;;;5109690;28;20066;-89
2021/07/04 19:50:33;;;;;;;10.73;7.97;;;27.10;94.30;;;;;;5095487;28;20470;-88
2021/07/04 19:52:59;;;;;;;7.40;6.43;;;27.00;94.30;;;;;;5110637;28;20028;-87
2021/07/04 19:55:26;;;;;;;18.33;8.25;;;27.00;94.40;;;;;;5094924;28;20371;-91
2021/07/04 19:57:53;;;;;;;12.93;9.65;;;26.90;94.70;;;;;;5095202;28;20467;-90
2021/07/04 20:00:21;;;;;;;8.70;7.88;;;26.90;94.80;;;;;;5095179;28;20089;-88
2021/07/04 20:02:48;;;;;;;12.25;8.93;;;26.90;94.80;;;;;;5094873;28;20032;-87
2021/07/04 20:05:15;;;;;;;15.80;10.35;;;26.80;94.80;;;;;;5096326;28;20056;-87
2021/07/04 20:07:41;;;;;;;10.05;7.15;;;26.80;94.90;;;;;;5079815;28;20024;-90
2021/07/04 20:10:11;;;;;;;7.80;6.80;;;26.80;95.00;;;;;;5075088;28;20017;-90
2021/07/04 20:12:37;;;;;;;;;;;26.70;95.00;;;;;;5075803;28;20024;-90
2021/07/04 20:15:05;;;;;;;8.80;6.00;;;26.60;95.50;;;;;;5075019;28;19904;-89
2021/07/04 20:17:31;;;;;;;7.85;6.90;;;26.60;95.40;;;;;;5087095;28;20024;-90
2021/07/04 20:19:58;;;;;;;8.65;7.75;;;26.50;95.50;;;;;;5084440;28;20036;-88
2021/07/04 20:22:24;;;;;;;8.88;7.38;;;26.50;95.50;;;;;;5074949;28;20028;-89
2021/07/04 20:24:50;;;;;;;12.55;10.57;;;26.50;95.50;;;;;;5079396;28;20343;-90
2021/07/04 20:27:16;;;;;;;39.97;12.48;;;26.50;95.70;;;;;;5094950;28;20134;-88
2021/07/04 20:29:42;;;;;;;8.43;7.07;;;26.40;95.50;;;;;;5096244;28;20024;-89
2021/07/04 20:32:08;;;;;;;8.65;6.47;;;26.40;95.50;;;;;;5094790;28;20382;-88
2021/07/04 20:34:34;;;;;;;11.23;9.98;;;26.40;95.60;;;;;;5094524;28;20035;-87
2021/07/04 20:37:00;;;;;;;70.47;43.90;;;26.30;95.50;;;;;;5096166;28;20035;-93
2021/07/04 20:39:25;;;;;;;14.70;11.85;;;26.30;95.50;;;;;;5095030;28;20077;-94
2021/07/04 20:41:51;;;;;;;19.60;17.33;;;26.30;95.50;;;;;;5095034;28;20052;-92
2021/07/04 20:44:17;;;;;;;255.10;228.32;;;26.30;95.50;;;;;;5095509;28;20031;-94
2021/07/04 20:46:43;;;;;;;47.60;41.30;;;26.20;95.50;;;;;;5094967;28;20107;-91
2021/07/04 20:49:11;;;;;;;11.70;10.50;;;26.30;95.70;;;;;;5094950;28;20517;-90
2021/07/04 20:51:38;;;;;;;7.53;6.82;;;26.20;95.80;;;;;;5095061;28;20047;-91
2021/07/04 20:54:05;;;;;;;7.15;6.45;;;26.20;96.00;;;;;;5095133;28;20031;-90
2021/07/04 20:56:30;;;;;;;6.18;5.57;;;26.10;96.00;;;;;;5095053;28;20028;-92
2021/07/04 20:58:56;;;;;;;6.13;5.55;;;26.10;95.90;;;;;;5094221;28;20024;-89
2021/07/04 21:01:22;;;;;;;7.47;6.15;;;26.10;96.00;;;;;;5094204;28;20470;-89
2021/07/04 21:03:48;;;;;;;9.60;5.90;;;26.10;96.20;;;;;;5094056;28;20024;-87
2021/07/04 21:06:16;;;;;;;7.85;6.35;;;26.10;96.00;;;;;;5093119;28;20047;-87
2021/07/04 21:08:41;;;;;;;7.00;5.93;;;26.10;95.90;;;;;;5094072;28;20027;-89
2021/07/04 21:11:07;;;;;;;8.63;5.88;;;26.10;95.80;;;;;;5093989;28;20024;-88
2021/07/04 21:13:34;;;;;;;6.95;6.07;;;26.00;95.90;;;;;;5094043;28;20101;-88
2021/07/04 21:16:05;;;;;;;6.82;6.10;;;26.00;96.10;;;;;;5093819;28;20032;-87
2021/07/04 21:18:31;;;;;;;10.50;6.55;;;25.90;96.10;;;;;;5093788;28;20028;-87
2021/07/04 21:20:56;;;;;;;8.00;5.93;;;25.90;96.50;;;;;;5093962;28;20547;-89
2021/07/04 21:23:22;;;;;;;7.28;6.10;;;25.90;96.30;;;;;;5094184;28;20032;-86
2021/07/04 21:25:48;;;;;;;6.57;5.95;;;25.90;96.30;;;;;;5093675;28;20073;-88
2021/07/04 21:28:13;;;;;;;6.82;5.65;;;25.90;96.50;;;;;;5094838;28;20020;-88
2021/07/04 21:30:39;;;;;;;7.43;6.32;;;25.90;96.60;;;;;;5093628;28;20504;-88
2021/07/04 21:33:05;;;;;;;7.00;5.95;;;25.80;96.70;;;;;;5093645;28;20174;-89
2021/07/04 21:35:32;;;;;;;9.27;5.80;;;25.80;96.60;;;;;;5093626;28;20028;-88
2021/07/04 21:38:01;;;;;;;8.75;6.03;;;25.80;96.80;;;;;;5093555;28;20074;-89
2021/07/04 21:40:27;;;;;;;7.88;6.38;;;25.80;96.70;;;;;;5093432;28;20024;-89
2021/07/04 21:42:53;;;;;;;8.93;6.25;;;25.70;96.60;;;;;;5093093;28;20051;-89
2021/07/04 21:45:19;;;;;;;7.78;6.50;;;25.60;96.70;;;;;;5093428;28;20603;-88
2021/07/04 21:47:45;;;;;;;7.80;6.20;;;25.50;96.90;;;;;;5093399;28;20089;-89
2021/07/04 21:50:12;;;;;;;6.55;5.80;;;25.60;96.80;;;;;;5093385;28;20494;-89
2021/07/04 21:52:38;;;;;;;6.68;5.97;;;25.60;96.90;;;;;;5093460;28;20028;-89
2021/07/04 21:55:08;;;;;;;9.10;6.40;;;25.50;96.90;;;;;;5093302;28;20028;-89
2021/07/04 21:57:34;;;;;;;8.10;5.72;;;25.50;97.00;;;;;;5093278;28;20020;-89
2021/07/04 22:00:03;;;;;;;6.20;5.60;;;25.40;97.00;;;;;;5084618;28;20036;-88
2021/07/04 22:02:29;;;;;;;7.88;6.30;;;25.40;97.00;;;;;;5074015;28;20025;-89
2021/07/04 22:04:55;;;;;;;7.95;6.30;;;25.40;97.20;;;;;;5072737;28;20020;-88
2021/07/04 22:07:21;;;;;;;6.85;6.10;;;25.40;97.20;;;;;;5072874;28;20467;-87
2021/07/04 22:09:46;;;;;;;7.38;5.93;;;25.30;97.30;;;;;;5074041;28;20048;-88
2021/07/04 22:12:13;;;;;;;7.40;6.00;;;25.30;97.20;;;;;;5072998;28;20494;-87
2021/07/04 22:14:38;;;;;;;6.50;5.90;;;25.30;97.20;;;;;;5072776;28;20475;-89
2021/07/04 22:17:04;;;;;;;9.30;5.72;;;25.30;97.30;;;;;;5073734;28;20040;-89
2021/07/04 22:19:30;;;;;;;7.82;5.95;;;25.30;97.40;;;;;;5072723;28;20028;-87
2021/07/04 22:21:55;;;;;;;7.93;6.38;;;25.30;97.30;;;;;;5072551;28;20028;-88
2021/07/04 22:24:21;;;;;;;7.40;5.70;;;25.30;97.80;;;;;;5072477;28;20023;-82
2021/07/04 22:26:47;;;;;;;7.50;5.38;;;25.20;97.40;;;;;;5072515;28;20043;-86
2021/07/04 22:29:12;;;;;;;7.45;5.95;;;25.20;97.30;;;;;;5073700;28;20086;-87
2021/07/04 22:31:38;;;;;;;6.28;5.47;;;25.20;97.30;;;;;;5073718;28;20020;-87
2021/07/04 22:34:04;;;;;;;5.72;5.18;;;25.20;97.30;;;;;;5072482;28;20394;-88
2021/07/04 22:36:29;;;;;;;9.35;6.25;;;25.20;97.40;;;;;;5072460;28;20032;-88
2021/07/04 22:38:55;;;;;;;6.35;5.75;;;25.10;97.50;;;;;;5072480;28;20111;-88
2021/07/04 22:41:21;;;;;;;7.18;5.75;;;25.10;97.70;;;;;;5072500;28;20386;-87
2021/07/04 22:43:46;;;;;;;8.95;5.85;;;25.00;97.60;;;;;;5072075;28;20056;-87
2021/07/04 22:46:13;;;;;;;7.13;5.78;;;25.00;97.80;;;;;;5072326;28;20059;-87
2021/07/04 22:48:39;;;;;;;9.20;5.43;;;24.90;98.00;;;;;;5072390;28;20020;-89
2021/07/04 22:51:05;;;;;;;7.03;5.30;;;25.00;98.00;;;;;;5072492;28;20021;-89
2021/07/04 22:53:31;;;;;;;5.80;5.20;;;24.90;97.90;;;;;;5072267;28;20158;-87
2021/07/04 22:55:57;;;;;;;7.40;5.63;;;25.00;97.90;;;;;;5073566;28;20103;-88
2021/07/04 22:58:23;;;;;;;6.28;5.28;;;24.90;97.90;;;;;;5072190;28;20031;-86
2021/07/04 23:01:12;;;;;;;6.68;5.90;;;24.90;97.90;;;;;;5072358;28;20029;-87
2021/07/04 23:03:38;;;;;;;13.07;5.93;;;24.80;98.10;;;;;;5072974;28;20025;-93
2021/07/04 23:06:04;;;;;;;6.18;5.60;;;24.80;98.00;;;;;;5072009;28;20032;-87
2021/07/04 23:08:30;;;;;;;7.65;5.50;;;24.70;98.20;;;;;;5072230;28;20020;-86
2021/07/04 23:10:57;;;;;;;8.98;5.60;;;24.70;98.20;;;;;;5073469;28;20021;-86
2021/07/04 23:13:22;;;;;;;8.05;5.53;;;24.70;98.20;;;;;;5073326;28;20117;-87
2021/07/04 23:15:48;;;;;;;7.00;5.60;;;24.70;98.20;;;;;;5072059;28;20036;-88
2021/07/04 23:18:15;;;;;;;7.30;5.10;;;24.60;98.40;;;;;;5073542;28;20029;-88
2021/07/04 23:20:41;;;;;;;8.35;5.50;;;24.60;98.40;;;;;;5071999;28;20024;-87
2021/07/04 23:23:09;;;;;;;7.95;5.60;;;24.60;98.50;;;;;;5072239;28;20437;-88
2021/07/04 23:25:35;;;;;;;5.93;5.20;;;24.60;98.40;;;;;;5071976;28;20032;-88
2021/07/04 23:28:00;;;;;;;7.28;5.20;;;24.60;98.40;;;;;;5071867;28;20025;-88
2021/07/04 23:30:29;;;;;;;8.95;5.40;;;24.60;98.40;;;;;;5076235;28;20095;-87
2021/07/04 23:32:56;;;;;;;9.75;5.97;;;24.60;98.40;;;;;;5075609;28;20026;-88
2021/07/04 23:35:22;;;;;;;6.03;5.03;;;24.50;98.40;;;;;;5075524;28;20024;-88
2021/07/04 23:37:48;;;;;;;6.85;5.32;;;24.50;98.50;;;;;;5075613;28;20039;-82
2021/07/04 23:40:16;;;;;;;10.10;5.57;;;24.50;98.90;;;;;;5088283;28;20020;-86
2021/07/04 23:42:42;;;;;;;6.53;5.07;;;24.40;98.70;;;;;;5096641;28;20075;-86
2021/07/04 23:45:08;;;;;;;6.10;4.90;;;24.40;98.70;;;;;;5095639;28;20062;-87
2021/07/04 23:47:34;;;;;;;7.50;5.70;;;24.50;98.70;;;;;;5095663;28;20020;-86
2021/07/04 23:50:00;;;;;;;6.80;5.57;;;24.40;98.80;;;;;;5096820;28;20043;-87
2021/07/04 23:52:26;;;;;;;6.03;5.40;;;24.30;99.00;;;;;;5095557;28;20028;-88
2021/07/04 23:54:52;;;;;;;5.97;5.28;;;24.30;99.00;;;;;;5095539;28;20028;-87
2021/07/04 23:57:17;;;;;;;6.68;5.32;;;24.30;99.00;;;;;;5095415;28;20024;-88
2021/07/04 23:59:48;;;;;;;9.45;5.95;;;24.30;99.00;;;;;;5095489;28;20035;-88
